• Join FlightAware (Why Join?)
  • Login
  • US Flag GB Flag 
08:31 EDT


 

Airport Tracker/Info


-or-


 

Live Flight TrackerFlight Track Log ✈ DAL1117 ✈ 21-Apr-2013 ✈ KDTW - KLAS

Flight Track Log - Related Links

Times and Time Zones

All times are in EDT time to prevent confusion due to time zone crossing. See the DAL1117 flight status page for this flight to view local times or setup timezone preferences in your user account.

Time Position Orientation Groundspeed Altitude Reporting Facility
EDT Latitude Longitude Course Direction KTS MPH feet Rate Location/Type
21:41 42.2036 -83.3556 292° West 151 174 1,400  Level Cleveland Center
21:42 42.1711 -83.4044 228° Southwest 208 239 2,900 1,500 Climbing Cleveland Center
21:43 42.1453 -83.4481 231° Southwest 252 290 3,800 2,220 Climbing Cleveland Center
21:43 42.1342 -83.4756 241° Southwest 264 304 4,900 3,180 Climbing Cleveland Center
21:44 42.3065 -83.7659 285° West  Level FlightAware Approximate
21:44 42.1389 -83.5319 276° West 275 316 7,000  Level Cleveland Center
21:44 42.1567 -83.5692 303° West 275 316 8,200 2,880 Climbing Cleveland Center
21:45 42.3430 -83.9043 292° West  Level FlightAware Approximate
21:45 42.1803 -83.6264 299° West 275 316 9,900  Level Cleveland Center
21:46 42.3839 -84.0408 292° West  Level FlightAware Approximate
21:46 42.2214 -83.7208 300° West 303 349 11,100  Level Cleveland Center
21:47 42.2725 -83.8356 301° West 330 380 13,100 2,160 Climbing Cleveland Center
21:48 42.3253 -83.9564 301° West 358 412 15,500 2,400 Climbing Cleveland Center
21:49 42.3778 -84.0800 300° West 372 428 17,900 1,800 Climbing Cleveland Center
21:50 42.4239 -84.2119 295° West 377 434 19,100 1,500 Climbing Cleveland Center
21:52 42.4325 -84.5136 272° West 392 451 22,500 1,560 Climbing Cleveland Center
21:53 42.4422 -84.7119 274° West 411 473 24,500 1,380 Climbing Chicago Center
21:54 42.4450 -84.8719 271° West 423 487 25,800 1,140 Climbing Chicago Center
21:55 42.4481 -85.0317 272° West 425 489 26,900 1,080 Climbing Chicago Center
21:56 42.4514 -85.1942 272° West 430 495 28,100 1,080 Climbing Chicago Center
21:57 42.4550 -85.3567 272° West 431 496 29,200 1,020 Climbing Chicago Center
21:58 42.4575 -85.5194 271° West 432 497 30,200 1,020 Climbing Chicago Center
21:59 42.4611 -85.6806 272° West 429 494 31,400 1,080 Climbing Chicago Center
22:00 42.4628 -85.8408 271° West 426 490 32,500 1,020 Climbing Chicago Center
22:01 42.4650 -86.0314 271° West 423 487 33,500 720 Climbing Chicago Center
22:02 42.4553 -86.1861 265° West 415 478 34,000 240 Climbing Chicago Center
22:03 42.4361 -86.3411 261° West 416 479 34,000  Level Chicago Center
22:04 42.4158 -86.4956 260° West 416 479 34,000  Level Chicago Center
22:05 42.3964 -86.6503 260° West 416 479 34,000  Level Chicago Center
22:06 42.3797 -86.8000 261° West 417 480 34,000  Level Chicago Center
22:07 42.3583 -86.9539 259° West 419 482 34,000  Level Chicago Center
22:08 42.3325 -87.1367 259° West 415 478 34,000  Level Chicago Center
22:10 42.3122 -87.2917 260° West 420 483 34,000  Level Chicago Center
22:11 42.2914 -87.4456 260° West 420 483 34,000  Level Chicago Center
22:12 42.2700 -87.6025 260° West 425 489 34,000  Level Chicago Center
22:13 42.2489 -87.7564 260° West 422 486 34,000  Level Chicago Center
22:14 42.2272 -87.9094 259° West 420 483 34,000  Level Chicago Center
22:15 42.2028 -88.0608 258° West 418 481 34,000  Level Chicago Center
22:16 42.1703 -88.2431 257° West 420 483 34,000  Level Chicago Center
22:17 42.1433 -88.3939 257° West 418 481 34,000  Level Chicago Center
22:18 42.1164 -88.5453 257° West 419 482 34,000  Level Chicago Center
22:19 42.0894 -88.6947 256° West 417 480 34,000  Level Chicago Center
22:20 42.0617 -88.8453 256° West 418 481 34,000  Level Chicago Center
22:21 42.0347 -88.9950 256° West 417 480 34,000  Level Chicago Center
22:22 42.0067 -89.1453 256° West 417 480 34,000  Level Chicago Center
22:23 41.9722 -89.3253 256° West 418 481 34,000  Level Chicago Center
22:24 41.9453 -89.4744 256° West 417 480 34,000  Level Chicago Center
22:25 41.9164 -89.6233 255° West 415 478 34,000  Level Chicago Center
22:26 41.8883 -89.7722 256° West 414 476 34,000  Level Chicago Center
22:27 41.8586 -89.9339 256° West 415 478 34,000  Level Chicago Center
22:28 41.8311 -90.0814 256° West 412 474 34,000  Level Chicago Center
22:29 41.8003 -90.2308 255° West 416 479 34,000  Level Chicago Center
22:30 41.7731 -90.3719 256° West 423 487 34,000  Level Chicago Center
22:31 41.7431 -90.5222 255° West 420 483 34,000  Level Chicago Center
22:32 41.7117 -90.6803 255° West 416 479 34,000  Level Chicago Center
22:33 41.6817 -90.8289 255° West 416 479 34,000  Level Chicago Center
22:34 41.6514 -90.9769 255° West 416 479 34,000  Level Chicago Center
22:35 41.6208 -91.1264 255° West 417 480 34,000  Level Chicago Center
22:36 41.5839 -91.3056 255° West 418 481 34,000  Level Chicago Center
22:37 41.5533 -91.4550 255° West 419 482 34,000  Level Chicago Center
22:38 41.5225 -91.6036 255° West 417 480 34,000  Level Chicago Center
22:39 41.5069 -91.7558 262° West 417 480 34,000  Level Chicago Center
22:40 41.4922 -91.9081 263° West 416 479 34,000  Level Chicago Center
22:41 41.4781 -92.0608 263° West 418 481 34,000  Level Chicago Center
22:42 41.4633 -92.2114 263° West 415 478 34,000  Level Chicago Center
22:43 41.4475 -92.3603 262° West 410 472 34,000  Level Chicago Center
22:44 41.4300 -92.5319 262° West 409 471 34,000  Level Chicago Center
22:45 41.4144 -92.6789 262° West 406 467 34,000  Level Chicago Center
22:46 41.4003 -92.8281 263° West 410 472 34,000  Level Chicago Center
22:47 41.3908 -92.9197 262° West 410 472 34,000  Level Minneapolis Center
22:48 41.3747 -93.0708 262° West 415 478 34,000  Level Minneapolis Center
22:49 41.3581 -93.2206 262° West 415 478 34,000  Level Minneapolis Center
22:50 41.3389 -93.3986 262° West 412 474 34,000  Level Minneapolis Center
22:51 41.3228 -93.5456 262° West 408 470 34,000  Level Minneapolis Center
22:52 41.3078 -93.6908 262° West 403 464 34,000  Level Minneapolis Center
22:53 41.2911 -93.8397 262° West 409 471 34,000  Level Minneapolis Center
22:54 41.2714 -94.0178 262° West 410 472 34,000  Level Minneapolis Center
22:55 41.2528 -94.1669 261° West 411 473 34,000  Level Minneapolis Center
22:56 41.2344 -94.3306 262° West 406 467 34,000 360 Level Minneapolis Center
22:57 41.2175 -94.4750 261° West 399 459 34,800 720 Climbing Minneapolis Center
22:58 41.1994 -94.6172 260° West 393 452 35,500 540 Climbing Minneapolis Center
22:59 41.1833 -94.7589 261° West 389 448 36,000 240 Climbing Minneapolis Center
23:00 41.1664 -94.9028 261° West 392 451 36,000  Level Minneapolis Center
23:01 41.1481 -95.0492 261° West 398 458 36,000  Level Minneapolis Center
23:02 41.1297 -95.1931 260° West 397 457 36,000  Level Minneapolis Center
23:03 41.1114 -95.3358 260° West 393 452 36,000  Level Minneapolis Center
23:04 41.0931 -95.4761 260° West 389 448 36,000  Level Minneapolis Center
23:05 41.0747 -95.6172 260° West 387 445 36,000  Level Minneapolis Center
23:06 41.0528 -95.7881 260° West 390 449 36,000  Level Minneapolis Center
23:07 41.0339 -95.9292 260° West 387 445 36,000  Level Minneapolis Center
23:08 41.0164 -96.0667 260° West 379 436 36,000  Level Minneapolis Center
23:09 40.9972 -96.2056 260° West 379 436 36,000  Level Minneapolis Center
23:10 40.9781 -96.3450 260° West 382 440 36,000  Level Minneapolis Center
23:11 40.9594 -96.4850 260° West 383 441 36,000  Level Minneapolis Center
23:12 40.9403 -96.6272 260° West 389 448 36,000  Level Minneapolis Center
23:14 40.9208 -96.7667 260° West 387 445 36,000  Level Minneapolis Center
23:15 40.9067 -96.9103 263° West 391 450 36,000  Level Minneapolis Center
23:16 40.8936 -97.0533 263° West 391 450 36,000  Level Minneapolis Center
23:17 40.8806 -97.1969 263° West 393 452 36,000  Level Minneapolis Center
23:18 40.8664 -97.3367 262° West 387 445 36,000  Level Minneapolis Center
23:19 40.8508 -97.4953 263° West 394 453 36,000  Level Minneapolis Center
23:20 40.8356 -97.6428 262° West 402 463 36,000  Level Minneapolis Center
23:21 40.8211 -97.7883 263° West 401 461 36,000  Level Minneapolis Center
23:22 40.8056 -97.9342 262° West 399 459 36,000  Level Minneapolis Center
23:23 40.7908 -98.0803 262° West 401 461 36,000  Level Minneapolis Center
23:24 40.7753 -98.2292 262° West 405 466 36,000  Level Minneapolis Center
23:25 40.7592 -98.3786 262° West 408 470 36,100  Climbing Minneapolis Center
23:26 40.7419 -98.5272 261° West 408 470 36,000 -60 Descending Minneapolis Center
23:27 40.7275 -98.6750 263° West 405 466 36,000  Level Minneapolis Center
23:28 40.7097 -98.8217 261° West 403 464 36,000  Level Minneapolis Center
23:29 40.6903 -98.9972 262° West 401 461 36,000  Level Minneapolis Center
23:30 40.6739 -99.1433 262° West 400 460 36,000  Level Minneapolis Center
23:30 40.6667 -99.2019 261° West 403 464 36,000  Level Denver Center
23:31 40.6500 -99.3494 262° West 406 467 36,000  Level Denver Center
23:32 40.6325 -99.4981 261° West 409 471 36,000  Level Denver Center
23:33 40.6150 -99.6481 261° West 414 476 36,000  Level Denver Center
23:34 40.5961 -99.7956 260° West 410 472 36,000  Level Denver Center
23:35 40.5789 -99.9442 261° West 409 471 36,000  Level Denver Center
23:36 40.5589 -100.1086 261° West 408 470 36,000  Level Denver Center
23:37 40.5400 -100.2494 260° West 407 468 36,000  Level Denver Center
23:38 40.5231 -100.3922 261° West 410 472 36,000  Level Denver Center
23:39 40.5014 -100.5572 260° West 410 472 36,000  Level Denver Center
23:41 40.4831 -100.6983 260° West 407 468 36,000  Level Denver Center
23:42 40.4594 -100.8844 261° West 401 461 36,000  Level Denver Center
23:43 40.4450 -100.9992 261° West 399 459 36,000  Level Denver Center
23:44 40.4236 -101.1594 260° West 398 458 36,000  Level Denver Center
23:45 40.4006 -101.3203 259° West 400 460 36,000  Level Denver Center
23:46 40.3819 -101.4589 260° West 402 463 36,000  Level Denver Center
23:47 40.3586 -101.6186 259° West 400 460 36,000  Level Denver Center
23:48 40.3389 -101.7575 259° West 404 465 36,000  Level Denver Center
23:49 40.3189 -101.8964 259° West 404 465 36,000  Level Denver Center
23:50 40.2956 -102.0581 259° West 405 466 36,000  Level Denver Center
23:51 40.2761 -102.1958 260° West 404 465 36,000  Level Denver Center
23:52 40.2556 -102.3333 259° West 399 459 36,000  Level Denver Center
23:53 40.2319 -102.4906 259° West 395 455 36,000  Level Denver Center
23:54 40.2119 -102.6239 259° West 391 450 36,000  Level Denver Center
23:55 40.1922 -102.7617 259° West 390 449 36,000  Level Denver Center
23:56 40.1714 -102.9025 259° West 391 450 36,000  Level Denver Center
23:57 40.1483 -103.0431 258° West 392 451 36,000  Level Denver Center
23:58 40.1281 -103.1839 259° West 392 451 36,000  Level Denver Center
23:59 40.1019 -103.3481 258° West 393 452 36,000  Level Denver Center
00:00 40.0806 -103.4889 259° West 394 453 36,000  Level Denver Center
00:01 40.0581 -103.6289 258° West 391 450 36,000  Level Denver Center
00:02 40.0358 -103.7681 258° West 390 449 36,000  Level Denver Center
00:03 40.0139 -103.9103 259° West 395 455 36,000  Level Denver Center
00:04 39.9906 -104.0492 258° West 390 449 36,000  Level Denver Center
00:05 39.9683 -104.1889 258° West 390 449 36,000  Level Denver Center
00:06 39.9447 -104.3275 258° West 388 447 36,000  Level Denver Center
00:07 39.9256 -104.4417 258° West 386 444 36,000  Level Denver Center
00:08 39.8997 -104.6000 258° West 383 441 36,000  Level Denver Center
00:09 39.8739 -104.7314 256° West 375 432 36,000  Level Denver Center
00:10 39.8489 -104.8636 256° West 378 435 36,000  Level Denver Center
00:11 39.8236 -104.9936 256° West 373 429 36,000  Level Denver Center
00:12 39.7981 -105.1275 256° West 380 437 36,000  Level Denver Center
00:13 39.7717 -105.2594 255° West 376 433 36,000  Level Denver Center
00:14 39.7450 -105.3942 256° West 384 442 36,000  Level Denver Center
00:15 39.7186 -105.5272 256° West 380 437 36,000  Level Denver Center
00:16 39.6875 -105.6839 256° West 380 437 36,000  Level Denver Center
00:17 39.6683 -105.7744 255° West 386 444 36,000  Level Denver Center
00:18 39.6344 -105.9514 256° West 380 437 36,100  Climbing Denver Center
00:19 39.6067 -106.0844 255° West 379 436 36,000 -60 Descending Denver Center
00:20 39.5847 -106.1964 256° West 369 425 36,000  Level Denver Center
00:21 39.5586 -106.3256 255° West 370 426 36,000  Level Denver Center
00:23 39.5322 -106.4542 255° West 370 426 36,000  Level Denver Center
00:24 39.4981 -106.6153 255° West 370 426 36,000  Level Denver Center
00:25 39.4678 -106.7578 255° West 368 423 36,000  Level Denver Center
00:26 39.4411 -106.8814 254° West 370 426 36,000  Level Denver Center
00:27 39.4119 -107.0044 253° West 373 429 36,000  Level Denver Center
00:28 39.3758 -107.1486 252° West 378 435 36,000  Level Denver Center
00:29 39.3450 -107.2722 252° West 378 435 36,000  Level Denver Center
00:30 39.3083 -107.4153 252° West 376 433 36,000  Level Denver Center
00:31 39.2767 -107.5392 252° West 378 435 36,000  Level Denver Center
00:32 39.2458 -107.6603 252° West 373 429 36,000  Level Denver Center
00:33 39.2081 -107.8047 251° West 379 436 36,000  Level Denver Center
00:34 39.1769 -107.9275 252° West 377 434 36,000  Level Denver Center
00:35 39.1453 -108.0500 252° West 375 432 36,000  Level Denver Center
00:36 39.1136 -108.1708 251° West 372 428 36,000  Level Denver Center
00:37 39.0714 -108.3319 251° West 371 427 36,000  Level Denver Center
00:38 39.0383 -108.4561 251° West 377 434 36,000  Level Denver Center
00:39 39.0006 -108.5981 251° West 375 432 36,000  Level Denver Center
00:40 38.9681 -108.7197 251° West 374 430 36,000  Level Denver Center
00:41 38.9344 -108.8414 250° West 377 434 36,000  Level Denver Center
00:42 38.8969 -108.9839 251° West 376 433 36,000  Level Denver Center
00:43 38.8636 -109.1056 251° West 377 434 36,000  Level Denver Center
00:44 38.8300 -109.2292 251° West 382 440 36,000  Level Denver Center
00:45 38.7919 -109.3717 251° West 378 435 36,000  Level Denver Center
00:46 38.7517 -109.5167 250° West 383 441 36,000  Level Denver Center
00:47 38.7228 -109.6181 250° West 380 437 36,000  Level Denver Center
00:48 38.6772 -109.7842 251° West 388 447 36,000  Level Denver Center
00:49 38.6422 -109.9081 250° West 389 448 36,000  Level Denver Center
00:50 38.6011 -110.0519 250° West 385 443 36,000  Level Denver Center
00:51 38.5664 -110.1778 251° West 392 451 36,000  Level Denver Center
00:52 38.5497 -110.2408 251° West 390 449 36,000  Level Salt Lake Center
00:53 38.5086 -110.3883 250° West 393 452 36,000  Level Salt Lake Center
00:54 38.4833 -110.4706 249° West 394 453 36,000  Level Denver Center
00:55 38.4458 -110.5969 249° West 397 457 36,000  Level Denver Center
00:55 38.4342 -110.6397 251° West 397 457 36,000  Level Salt Lake Center
00:56 38.3836 -110.7847 246° West 403 464 36,000  Level Salt Lake Center
00:57 38.3753 -110.9108 265° West 379 436 36,000  Level Salt Lake Center
00:58 38.3861 -111.0431 276° West 370 426 36,000  Level Salt Lake Center
00:59 38.3717 -111.1756 262° West 387 445 36,000  Level Salt Lake Center
01:00 38.3058 -111.2900 234° Southwest 401 461 36,000  Level Salt Lake Center
01:01 38.2361 -111.4061 233° Southwest 410 472 36,000  Level Salt Lake Center
01:02 38.1675 -111.5250 234° Southwest 417 480 36,000  Level Salt Lake Center
01:03 38.0956 -111.6428 232° Southwest 422 486 36,100  Climbing Salt Lake Center
01:04 38.0267 -111.7589 233° Southwest 415 478 36,000 -60 Descending Salt Lake Center
01:05 37.9544 -111.8764 232° Southwest 420 483 36,000  Level Salt Lake Center
01:06 37.8711 -112.0164 233° Southwest 416 479 36,000  Level Salt Lake Center
01:07 37.7986 -112.1331 232° Southwest 421 484 36,000  Level Salt Lake Center
01:08 37.7258 -112.2536 233° Southwest 428 493 36,000  Level Salt Lake Center
01:09 37.6542 -112.3708 232° Southwest 424 488 36,000  Level Salt Lake Center
01:10 37.5842 -112.4831 232° Southwest 412 474 36,000  Level Salt Lake Center
01:11 37.5122 -112.5992 232° Southwest 414 476 36,000 -120 Level Salt Lake Center
01:12 37.4386 -112.7175 232° Southwest 419 482 35,800 -600 Descending Salt Lake Center
01:13 37.3631 -112.8369 232° Southwest 426 490 34,800 -1,020 Descending Salt Lake Center
01:14 37.2900 -112.9539 232° Southwest 425 489 33,800 -1,020 Descending Salt Lake Center
01:15 37.2186 -113.0692 232° Southwest 420 483 32,800 -960 Descending Salt Lake Center
01:16 37.1467 -113.1850 232° Southwest 419 482 31,900 -960 Descending Salt Lake Center
01:17 37.0714 -113.3019 231° Southwest 427 491 30,900 -1,020 Descending Salt Lake Center
01:18 36.9956 -113.4228 232° Southwest 437 503 29,900 -1,020 Descending Salt Lake Center
01:19 36.9194 -113.5447 232° Southwest 443 510 28,900 -960 Descending Salt Lake Center
01:20 36.8450 -113.6625 232° Southwest 435 501 28,000 -960 Descending Los Angeles Center
01:21 36.7719 -113.7769 231° Southwest 424 488 27,000 -1,740 Descending Los Angeles Center
01:22 36.7028 -113.8858 232° Southwest 405 466 24,500 -2,460 Descending Los Angeles Center
01:23 36.6358 -113.9894 231° Southwest 386 444 22,100 -2,280 Descending Los Angeles Center
01:24 36.5725 -114.0881 231° Southwest 370 426 19,900 -2,280 Descending Los Angeles Center
01:25 36.5258 -114.1958 242° Southwest 359 413 17,500 -2,640 Descending Los Angeles Center
01:26 36.5067 -114.2486 246° West 362 417 16,300 -2,760 Descending Los Angeles Center
01:26 36.4697 -114.3158 236° Southwest 344 396 14,700 -2,100 Descending Los Angeles Center
01:28 36.4228 -114.4175 240° Southwest 341 392 12,800 -1,380 Descending Los Angeles Center
01:29 36.3714 -114.5153 237° Southwest 339 390 11,900 -720 Descending Los Angeles Center
01:30 36.3186 -114.6125 236° Southwest 338 389 11,400 -1,500 Descending Los Angeles Center
01:31 36.2581 -114.7264 237° Southwest 295 339 8,600 -2,160 Descending Los Angeles Center
01:32 36.2267 -114.7811 235° Southwest 301 346 7,100 -840 Descending Los Angeles Center
01:33 36.1806 -114.8664 236° Southwest 262 302 7,000 -300 Descending Los Angeles Center
01:34 36.1519 -114.9219 237° Southwest 187 215 6,500 -780 Descending Los Angeles Center
01:35 36.1336 -114.9761 247° West 186 214 5,600 -1,080 Descending Los Angeles Center
01:36 36.1392 -115.0408 276° West 178 205 4,400 -1,140 Descending Los Angeles Center
01:37 36.1383 -115.0969 269° West 159 183 3,300 -900 Descending Los Angeles Center
01:38 36.1197 -115.1406 242° Southwest 146 168 2,600 -660 Descending Los Angeles Center
01:39 36.0889 -115.1578 204° Southwest 141 162 2,000 -540 Descending Los Angeles Center